Time;durP1;ratioP1;P1;durP2;ratioP2;P2;SDS_P1;SDS_P2;PMS_P1;PMS_P2;Temp;Humidity;BMP_temperature;BMP_pressure;BME280_temperature;BME280_humidity;BME280_pressure;Samples;Min_cycle;Max_cycle;Signal;HPM_P1;HPM_P2
2023/09/30 00:00:32;;;;;;;28.23;10.82;;;;;;;15.61;100.00;96611.78;1023136;29;20039;-76
2023/09/30 00:01:03;;;;;;;25.42;10.02;;;;;;;15.61;100.00;96609.16;1024089;28;20098;-75
2023/09/30 00:01:33;;;;;;;20.13;9.68;;;;;;;15.56;100.00;96600.19;1023702;28;20028;-74
2023/09/30 00:02:04;;;;;;;21.67;9.85;;;;;;;15.64;100.00;96616.53;1023237;29;20027;-75
2023/09/30 00:02:34;;;;;;;23.80;9.32;;;;;;;15.62;100.00;96603.56;1019170;29;20074;-74
2023/09/30 00:03:05;;;;;;;23.30;9.80;;;;;;;15.63;100.00;96615.75;1019475;29;20031;-74
2023/09/30 00:03:35;;;;;;;24.17;10.18;;;;;;;15.62;100.00;96613.34;1019563;28;20031;-76
2023/09/30 00:04:07;;;;;;;21.90;9.50;;;;;;;15.63;100.00;96615.75;1023399;28;20027;-76
2023/09/30 00:04:37;;;;;;;25.55;11.13;;;;;;;15.59;100.00;96617.34;1026807;28;20030;-74
2023/09/30 00:05:08;;;;;;;25.27;9.85;;;;;;;15.61;100.00;96615.22;1023296;29;20522;-75
2023/09/30 00:05:38;;;;;;;21.45;8.48;;;;;;;15.61;100.00;96617.09;1023770;28;20031;-75
2023/09/30 00:06:09;;;;;;;24.77;9.45;;;;;;;15.64;100.00;96621.84;1019148;29;20567;-76
2023/09/30 00:06:39;;;;;;;21.90;8.82;;;;;;;15.63;100.00;96622.91;1019174;29;20095;-75
2023/09/30 00:07:10;;;;;;;24.40;9.43;;;;;;;15.61;100.00;96623.16;1022698;28;20027;-75
2023/09/30 00:07:40;;;;;;;23.63;9.45;;;;;;;15.55;100.00;96613.66;1022374;28;20042;-75
2023/09/30 00:08:11;;;;;;;22.35;9.27;;;;;;;15.57;100.00;96622.13;1028391;28;20367;-74
2023/09/30 00:08:43;;;;;;;22.65;9.55;;;;;;;15.58;100.00;96629.00;1027078;28;20054;-76
2023/09/30 00:09:14;;;;;;;21.88;8.93;;;;;;;15.53;100.00;96623.75;1027420;28;20091;-75
2023/09/30 00:09:44;;;;;;;23.52;8.88;;;;;;;15.55;100.00;96626.88;1027509;28;20038;-75
2023/09/30 00:10:15;;;;;;;24.00;9.70;;;;;;;15.50;100.00;96619.00;1031193;28;20089;-76
2023/09/30 00:10:46;;;;;;;27.77;9.52;;;;;;;15.55;100.00;96629.53;1027191;28;20055;-76
2023/09/30 00:11:17;;;;;;;24.35;9.32;;;;;;;15.48;100.00;96618.47;1023200;29;20508;-75
2023/09/30 00:11:47;;;;;;;21.35;9.02;;;;;;;15.44;100.00;96615.56;1019390;29;20027;-75
2023/09/30 00:12:18;;;;;;;26.67;10.15;;;;;;;15.45;100.00;96617.13;1019391;29;20103;-76
2023/09/30 00:12:49;;;;;;;26.15;9.85;;;;;;;15.50;100.00;96624.28;1019452;29;20031;-75
2023/09/30 00:13:19;;;;;;;26.40;9.02;;;;;;;15.49;100.00;96620.84;1020485;29;20838;-77
2023/09/30 00:13:50;;;;;;;23.27;9.77;;;;;;;15.49;100.00;96623.50;1023477;28;20094;-75
2023/09/30 00:14:20;;;;;;;26.27;10.45;;;;;;;15.42;100.00;96616.91;1027261;28;20488;-75
2023/09/30 00:14:51;;;;;;;24.00;9.52;;;;;;;15.47;100.00;96614.25;1022690;28;20035;-75
2023/09/30 00:15:21;;;;;;;24.75;9.73;;;;;;;15.43;100.00;96621.94;1031228;28;20030;-75
2023/09/30 00:15:52;;;;;;;22.85;9.20;;;;;;;15.43;100.00;96623.78;1027043;28;20038;-74
2023/09/30 00:16:22;;;;;;;21.45;9.27;;;;;;;15.36;100.00;96610.84;1027235;28;20023;-74
2023/09/30 00:16:52;;;;;;;20.77;8.98;;;;;;;15.33;100.00;96612.19;1023122;28;20035;-74
2023/09/30 00:17:23;;;;;;;21.58;9.07;;;;;;;15.33;100.00;96616.69;1023046;28;20110;-75
2023/09/30 00:17:53;;;;;;;24.13;9.35;;;;;;;15.31;100.00;96610.88;1027257;28;20027;-74
2023/09/30 00:18:24;;;;;;;22.98;9.23;;;;;;;15.30;100.00;96612.72;1030967;28;20038;-76
2023/09/30 00:18:54;;;;;;;22.58;9.98;;;;;;;15.26;100.00;96611.69;1031261;28;20554;-75
2023/09/30 00:19:26;;;;;;;22.40;9.52;;;;;;;15.26;100.00;96614.34;1027052;28;20031;-75
2023/09/30 00:19:56;;;;;;;22.33;9.10;;;;;;;15.24;100.00;96619.09;1031210;28;20018;-76
2023/09/30 00:20:27;;;;;;;23.92;10.00;;;;;;;15.21;100.00;96614.34;1031180;28;20026;-75
2023/09/30 00:20:58;;;;;;;26.83;10.38;;;;;;;15.21;100.00;96619.63;1027465;28;20113;-75
2023/09/30 00:21:28;;;;;;;23.90;8.98;;;;;;;15.16;100.00;96617.00;1026975;28;20026;-75
2023/09/30 00:22:00;;;;;;;25.63;9.90;;;;;;;15.06;100.00;96615.19;1027322;28;20023;-76
2023/09/30 00:22:30;;;;;;;22.73;9.23;;;;;;;15.11;100.00;96621.50;1023487;28;20367;-74
2023/09/30 00:23:01;;;;;;;24.30;10.00;;;;;;;15.05;100.00;96623.38;1023340;28;20022;-75
2023/09/30 00:23:31;;;;;;;24.77;10.35;;;;;;;15.03;100.00;96622.88;1022962;29;20023;-75
2023/09/30 00:24:02;;;;;;;30.83;11.43;;;;;;;14.99;100.00;96629.72;1023522;28;20031;-76
2023/09/30 00:24:33;;;;;;;23.10;10.07;;;;;;;14.98;100.00;96628.94;1030587;28;20031;-75
2023/09/30 00:25:04;;;;;;;25.25;9.57;;;;;;;14.93;100.00;96623.69;1031301;28;20329;-75
2023/09/30 00:25:35;;;;;;;28.55;10.25;;;;;;;14.91;100.00;96633.72;1026215;28;20046;-78
2023/09/30 00:26:05;;;;;;;25.65;9.95;;;;;;;14.86;100.00;96623.19;1022181;29;20624;-76
2023/09/30 00:26:36;;;;;;;25.75;13.77;;;;;;;14.84;100.00;96631.34;1023030;29;20026;-76
2023/09/30 00:27:07;;;;;;;26.65;10.38;;;;;;;14.76;100.00;96618.69;1019158;29;20075;-74
2023/09/30 00:27:38;;;;;;;26.27;10.45;;;;;;;14.82;100.00;96632.66;1019663;29;20067;-75
2023/09/30 00:28:08;;;;;;;27.60;12.18;;;;;;;14.74;100.00;96625.31;1015470;29;20027;-77
2023/09/30 00:28:39;;;;;;;707.47;80.90;;;;;;;14.78;100.00;96627.13;1024652;28;20504;-74
2023/09/30 00:29:10;;;;;;;31.15;12.20;;;;;;;14.71;100.00;96629.25;1026974;28;20033;-75
2023/09/30 00:29:41;;;;;;;374.65;39.70;;;;;;;14.72;100.00;96627.41;1027028;28;20551;-75
2023/09/30 00:30:11;;;;;;;24.60;7.00;;;;;;;14.73;100.00;96640.38;1026851;28;20034;-75
2023/09/30 00:30:42;;;;;;;16.77;4.70;;;;;;;14.70;100.00;96640.91;1035007;28;20894;-73
2023/09/30 00:31:12;;;;;;;12.57;5.03;;;;;;;14.65;100.00;96638.25;1031140;28;20676;-74
2023/09/30 00:31:44;;;;;;;18.02;6.55;;;;;;;14.69;100.00;96646.44;1027088;28;20018;-75
2023/09/30 00:32:14;;;;;;;15.73;5.32;;;;;;;14.66;100.00;96639.84;1023190;29;20398;-74
2023/09/30 00:32:45;;;;;;;13.18;4.15;;;;;;;14.64;100.00;96635.88;1023568;28;20030;-76
2023/09/30 00:33:15;;;;;;;12.70;4.68;;;;;;;14.63;100.00;96639.59;1031677;28;20617;-74
2023/09/30 00:33:46;;;;;;;14.57;5.90;;;;;;;14.58;100.00;96638.50;1035211;28;20065;-75
2023/09/30 00:34:16;;;;;;;10.13;3.67;;;;;;;14.52;100.00;96628.22;1035337;28;20034;-75
2023/09/30 00:34:46;;;;;;;12.80;4.70;;;;;;;14.51;100.00;96634.56;1026665;28;20051;-74
2023/09/30 00:35:17;;;;;;;11.70;4.35;;;;;;;14.50;100.00;96643.53;1023080;29;20028;-76
2023/09/30 00:35:47;;;;;;;17.30;4.20;;;;;;;14.51;100.00;96643.28;1019000;29;20024;-76
2023/09/30 00:36:18;;;;;;;12.27;4.85;;;;;;;14.48;100.00;96648.25;1031089;28;20046;-75
2023/09/30 00:36:48;;;;;;;14.75;5.05;;;;;;;14.47;100.00;96641.41;1027390;28;20476;-76
2023/09/30 00:37:19;;;;;;;9.68;3.90;;;;;;;14.44;100.00;96649.84;1027093;28;20027;-74
2023/09/30 00:37:49;;;;;;;18.33;4.60;;;;;;;14.45;100.00;96651.44;1026925;28;20015;-74
2023/09/30 00:38:20;;;;;;;13.43;5.05;;;;;;;14.44;100.00;96658.56;1027235;28;20066;-75
2023/09/30 00:38:52;;;;;;;13.77;5.18;;;;;;;14.43;100.00;96661.50;1027098;28;20083;-74
2023/09/30 00:39:22;;;;;;;17.10;5.13;;;;;;;14.42;100.00;96660.69;1018906;28;20024;-74
2023/09/30 00:39:53;;;;;;;17.70;5.43;;;;;;;14.45;100.00;96659.34;1023139;29;20094;-74
2023/09/30 00:40:24;;;;;;;13.32;5.97;;;;;;;14.38;100.00;96657.78;1023387;28;20425;-77
2023/09/30 00:40:54;;;;;;;21.88;7.15;;;;;;;14.43;100.00;96664.13;1023433;28;20039;-75
2023/09/30 00:41:24;;;;;;;17.10;5.80;;;;;;;14.36;100.00;96657.25;1023217;28;20027;-76
2023/09/30 00:41:56;;;;;;;13.73;5.13;;;;;;;14.39;100.00;96662.00;1022969;29;20027;-75
2023/09/30 00:42:26;;;;;;;17.60;5.78;;;;;;;14.42;100.00;96673.09;1019184;29;20426;-75
2023/09/30 00:42:58;;;;;;;16.15;4.82;;;;;;;14.36;100.00;96657.25;1014901;29;20024;-76
2023/09/30 00:43:28;;;;;;;13.88;5.68;;;;;;;14.39;100.00;96677.84;1019109;29;20564;-76
2023/09/30 00:43:59;;;;;;;18.20;5.28;;;;;;;14.40;100.00;96676.00;1019237;29;20031;-76
2023/09/30 00:44:29;;;;;;;23.35;6.20;;;;;;;14.43;100.00;96674.69;1018549;28;20373;-77
2023/09/30 00:45:00;;;;;;;18.58;5.47;;;;;;;14.42;100.00;96673.91;1027561;28;20110;-77
2023/09/30 00:45:31;;;;;;;16.23;5.38;;;;;;;14.45;100.00;96683.13;1031062;28;20021;-75
2023/09/30 00:46:11;;;;;;;25.35;6.18;;;;;;;14.45;100.00;96681.28;1031813;28;20080;-75
2023/09/30 00:46:42;;;;;;;161.95;26.13;;;;;;;14.48;100.00;96677.31;1023263;29;20019;-75
2023/09/30 00:47:16;;;;;;;62.95;54.17;;;;;;;14.49;100.00;96676.28;1019058;29;20104;-76
2023/09/30 00:47:47;;;;;;;71.25;15.27;;;;;;;14.50;100.00;96672.56;1022967;28;20031;-75
2023/09/30 00:48:17;;;;;;;1999.90;999.90;;;;;;;14.43;100.00;96666.78;1019570;28;20019;-75
2023/09/30 00:48:48;;;;;;;1999.90;999.90;;;;;;;14.46;100.00;96676.81;1019158;29;20032;-75
2023/09/30 00:49:18;;;;;;;44.95;22.58;;;;;;;14.49;100.00;96686.84;1023156;29;20035;-76
2023/09/30 00:49:53;;;;;;;47.58;18.08;;;;;;;14.44;100.00;96670.97;1018866;29;20024;-76
2023/09/30 00:50:23;;;;;;;185.15;51.50;;;;;;;14.49;100.00;96682.34;1023776;28;20027;-76
2023/09/30 00:50:55;;;;;;;95.28;15.65;;;;;;;14.43;100.00;96672.06;1022946;29;20015;-76
2023/09/30 00:51:26;;;;;;;29.08;10.30;;;;;;;14.48;100.00;96674.69;1022953;29;20609;-76
2023/09/30 00:51:57;;;;;;;35.55;9.10;;;;;;;14.45;100.00;96669.91;1019747;29;20035;-76
2023/09/30 00:52:27;;;;;;;60.65;14.68;;;;;;;14.45;100.00;96676.00;1019096;29;20582;-75
2023/09/30 00:52:57;;;;;;;16.85;8.60;;;;;;;14.44;100.00;96681.53;1019361;29;20027;-75
2023/09/30 00:53:28;;;;;;;17.80;7.22;;;;;;;14.45;100.00;96675.19;1023291;29;20420;-75
2023/09/30 00:53:59;;;;;;;12.80;6.82;;;;;;;14.41;100.00;96658.31;1026916;28;20130;-75
2023/09/30 00:54:30;;;;;;;19.48;8.68;;;;;;;14.44;100.00;96663.84;1030504;28;20117;-76
2023/09/30 00:55:00;;;;;;;18.33;8.38;;;;;;;14.41;100.00;96669.66;1031073;28;20018;-75
2023/09/30 00:55:31;;;;;;;16.73;7.05;;;;;;;14.42;100.00;96660.69;1023032;28;20125;-75
2023/09/30 00:56:02;;;;;;;17.65;7.38;;;;;;;14.42;100.00;96667.81;1023259;29;20616;-74
2023/09/30 00:56:33;;;;;;;12.40;5.95;;;;;;;14.39;100.00;96661.22;1018418;29;20030;-75
2023/09/30 00:57:03;;;;;;;112.72;40.55;;;;;;;14.37;100.00;96660.69;1022921;29;20019;-73
2023/09/30 00:57:34;;;;;;;1999.90;999.90;;;;;;;14.34;100.00;96659.34;1027202;28;20400;-73
2023/09/30 00:58:04;;;;;;;55.90;51.55;;;;;;;14.35;100.00;96665.41;1018925;29;20028;-76
2023/09/30 00:58:35;;;;;;;25.30;8.48;;;;;;;14.29;100.00;96663.84;1019162;29;20401;-75
2023/09/30 00:59:05;;;;;;;18.17;8.07;;;;;;;14.32;100.00;96666.75;1018903;29;20031;-74
2023/09/30 00:59:36;;;;;;;20.00;7.50;;;;;;;14.25;100.00;96660.13;1018922;29;20028;-75
2023/09/30 01:00:07;;;;;;;21.27;6.45;;;;;;;14.31;100.00;96665.16;1019039;29;20028;-75
2023/09/30 01:00:38;;;;;;;17.85;8.25;;;;;;;14.22;100.00;96663.28;1019324;29;20429;-75
2023/09/30 01:01:09;;;;;;;19.83;7.25;;;;;;;14.27;100.00;96665.97;1019016;29;20035;-75
2023/09/30 01:01:41;;;;;;;17.15;6.75;;;;;;;14.24;100.00;96669.13;1022457;29;20090;-74
2023/09/30 01:02:11;;;;;;;15.98;6.82;;;;;;;14.21;100.00;96659.88;1019098;29;20522;-75
2023/09/30 01:02:44;;;;;;;15.30;7.00;;;;;;;14.23;100.00;96667.53;1023065;29;20037;-75
2023/09/30 01:03:14;;;;;;;13.98;6.47;;;;;;;14.23;100.00;96668.34;1023897;28;20582;-76
2023/09/30 01:03:47;;;;;;;19.30;7.43;;;;;;;14.22;100.00;96661.47;1030607;28;20023;-77
2023/09/30 01:04:18;;;;;;;16.65;6.07;;;;;;;14.19;100.00;96662.00;1028425;28;20443;-75
2023/09/30 01:04:48;;;;;;;16.75;7.35;;;;;;;14.14;100.00;96659.34;1026341;28;20015;-76
2023/09/30 01:05:19;;;;;;;15.52;7.10;;;;;;;14.18;100.00;96673.59;1015070;29;20640;-75
2023/09/30 01:05:49;;;;;;;18.80;6.80;;;;;;;14.19;100.00;96669.91;1015195;29;20039;-75
2023/09/30 01:06:20;;;;;;;13.95;6.90;;;;;;;14.13;100.00;96670.97;1019057;28;20023;-75
2023/09/30 01:06:50;;;;;;;23.48;8.32;;;;;;;14.17;100.00;96673.88;1019362;28;20122;-75
2023/09/30 01:07:22;;;;;;;21.02;7.95;;;;;;;14.15;100.00;96666.19;1023021;28;20095;-76
2023/09/30 01:07:52;;;;;;;17.83;7.30;;;;;;;14.14;100.00;96670.69;1027058;28;20018;-75
2023/09/30 01:08:22;;;;;;;53.95;9.70;;;;;;;14.13;100.00;96671.75;1023023;29;20114;-75
2023/09/30 01:08:53;;;;;;;12.30;4.07;;;;;;;14.10;100.00;96663.56;1019028;29;20102;-75
2023/09/30 01:09:24;;;;;;;15.38;4.68;;;;;;;14.14;100.00;96672.53;1019034;29;20031;-75
2023/09/30 01:09:54;;;;;;;13.02;4.03;;;;;;;14.14;100.00;96669.91;1022946;29;20019;-76
2023/09/30 01:10:25;;;;;;;9.15;3.40;;;;;;;14.06;100.00;96662.50;1031042;28;20059;-75
2023/09/30 01:10:56;;;;;;;12.57;4.82;;;;;;;14.12;100.00;96672.03;1023131;28;20109;-74
2023/09/30 01:11:26;;;;;;;11.65;5.00;;;;;;;14.11;100.00;96673.06;1018890;29;20023;-76
2023/09/30 01:11:57;;;;;;;8.30;3.60;;;;;;;14.13;100.00;96678.88;1023042;29;20027;-75
2023/09/30 01:12:28;;;;;;;6.97;3.35;;;;;;;14.13;100.00;96676.25;1023408;28;20118;-75
2023/09/30 01:12:58;;;;;;;15.77;4.93;;;;;;;14.12;100.00;96677.31;1023240;28;20051;-75
2023/09/30 01:13:35;;;;;;;18.48;5.30;;;;;;;14.09;100.00;96667.25;1027052;28;20841;-75
2023/09/30 01:14:23;;;;;;;15.60;4.43;;;;;;;14.12;100.00;96667.53;1026890;28;20532;-74
2023/09/30 01:15:04;;;;;;;302.38;109.22;;;;;;;14.12;100.00;96672.03;1022389;29;20024;-75
2023/09/30 01:15:36;;;;;;;726.58;70.75;;;;;;;14.11;100.00;96671.19;1018961;29;20720;-76
2023/09/30 01:16:09;;;;;;;328.52;35.95;;;;;;;14.10;100.00;96669.63;1018926;29;20035;-76
2023/09/30 01:16:40;;;;;;;28.38;10.73;;;;;;;14.14;100.00;96667.25;1022926;29;20539;-76
2023/09/30 01:17:13;;;;;;;43.22;15.00;;;;;;;14.13;100.00;96665.69;1022944;28;20023;-75
2023/09/30 01:17:44;;;;;;;44.75;13.07;;;;;;;14.13;100.00;96671.75;1022862;29;20581;-79
2023/09/30 01:18:14;;;;;;;71.47;14.13;;;;;;;14.12;100.00;96666.75;1020245;28;20036;-74
2023/09/30 01:18:45;;;;;;;42.22;12.88;;;;;;;14.11;100.00;96665.94;1023379;28;20488;-76
2023/09/30 01:19:15;;;;;;;30.77;11.10;;;;;;;14.08;100.00;96660.38;1023050;28;20026;-74
2023/09/30 01:19:46;;;;;;;49.05;13.95;;;;;;;14.08;100.00;96663.03;1022800;28;20083;-75
2023/09/30 01:20:19;;;;;;;36.10;11.82;;;;;;;14.04;100.00;96652.19;1022864;29;20133;-76
2023/09/30 01:20:49;;;;;;;36.65;13.20;;;;;;;14.09;100.00;96668.06;1017558;29;20112;-75
2023/09/30 01:21:20;;;;;;;28.77;11.85;;;;;;;14.06;100.00;96662.50;1019953;29;20039;-75
2023/09/30 01:21:59;;;;;;;27.13;12.35;;;;;;;14.03;100.00;96668.31;1021387;29;20023;-75
2023/09/30 01:22:30;;;;;;;39.65;12.55;;;;;;;14.00;100.00;96664.34;1021194;29;20036;-76
2023/09/30 01:23:00;;;;;;;38.70;12.38;;;;;;;14.02;100.00;96669.38;1023070;29;20555;-76
2023/09/30 01:23:31;;;;;;;35.30;13.25;;;;;;;13.88;100.00;96646.13;1017702;29;20110;-76
2023/09/30 01:24:02;;;;;;;49.88;12.57;;;;;;;14.03;100.00;96673.59;1015459;29;20051;-74
2023/09/30 01:24:40;;;;;;;46.58;12.18;;;;;;;14.03;100.00;96668.31;1017632;28;20032;-74
2023/09/30 01:25:11;;;;;;;51.40;14.10;;;;;;;14.00;100.00;96664.34;1025112;28;20126;-75
2023/09/30 01:25:43;;;;;;;26.70;9.20;;;;;;;14.02;100.00;96672.00;1030015;28;20471;-75
2023/09/30 01:26:14;;;;;;;56.55;14.77;;;;;;;13.93;100.00;96660.38;1032201;28;20196;-75
2023/09/30 01:26:44;;;;;;;29.95;11.70;;;;;;;13.99;100.00;96672.53;1030767;28;20037;-75
2023/09/30 01:27:18;;;;;;;74.13;13.32;;;;;;;13.98;100.00;96670.91;1030967;28;20034;-76
2023/09/30 01:27:50;;;;;;;111.30;22.35;;;;;;;13.93;100.00;96660.38;1031707;28;20130;-74
2023/09/30 01:28:20;;;;;;;75.10;17.00;;;;;;;13.91;100.00;96661.41;1031421;28;20121;-76
2023/09/30 01:28:51;;;;;;;53.17;12.75;;;;;;;13.87;100.00;96662.97;1023697;28;20023;-75
2023/09/30 01:29:22;;;;;;;44.10;12.30;;;;;;;13.89;100.00;96654.81;1020109;29;20075;-76
2023/09/30 01:29:52;;;;;;;54.42;15.02;;;;;;;13.91;100.00;96664.03;1026845;28;20432;-75
2023/09/30 01:30:23;;;;;;;40.22;12.13;;;;;;;13.99;100.00;96661.97;1024982;28;20024;-73
2023/09/30 01:30:53;;;;;;;36.80;11.95;;;;;;;13.99;100.00;96675.16;1027099;28;20019;-74
2023/09/30 01:31:24;;;;;;;54.20;14.25;;;;;;;13.97;100.00;96669.34;1023224;28;20501;-75
2023/09/30 01:31:55;;;;;;;94.63;17.98;;;;;;;13.88;100.00;96654.03;1019490;28;20035;-74
2023/09/30 01:32:25;;;;;;;44.25;12.85;;;;;;;13.94;100.00;96675.94;1022642;28;20063;-74
2023/09/30 01:32:56;;;;;;;93.47;13.98;;;;;;;13.89;100.00;96662.75;1023033;29;20035;-74
2023/09/30 01:33:27;;;;;;;70.80;14.38;;;;;;;13.93;100.00;96670.91;1022833;29;20091;-74
2023/09/30 01:33:58;;;;;;;67.35;14.13;;;;;;;13.93;100.00;96669.06;1023235;28;20481;-75
2023/09/30 01:34:29;;;;;;;26.05;11.00;;;;;;;13.87;100.00;96670.91;1026539;28;20011;-77
2023/09/30 01:35:00;;;;;;;49.45;13.35;;;;;;;13.90;100.00;96674.88;1026978;28;20026;-75
2023/09/30 01:35:30;;;;;;;40.83;13.25;;;;;;;13.93;100.00;96673.56;1023184;29;20026;-74
2023/09/30 01:36:01;;;;;;;78.15;14.77;;;;;;;13.90;100.00;96678.28;1018943;29;20865;-77
2023/09/30 01:36:32;;;;;;;30.80;10.82;;;;;;;13.89;100.00;96671.44;1019139;28;20086;-75
2023/09/30 01:37:02;;;;;;;38.13;11.88;;;;;;;13.87;100.00;96676.19;1023203;28;20087;-75
2023/09/30 01:37:33;;;;;;;45.60;12.50;;;;;;;13.86;100.00;96679.09;1022837;28;20019;-74
2023/09/30 01:38:03;;;;;;;53.60;11.68;;;;;;;13.83;100.00;96676.97;1023025;28;20115;-77
2023/09/30 01:38:33;;;;;;;44.80;12.60;;;;;;;13.84;100.00;96675.91;1023082;28;20027;-75
2023/09/30 01:39:04;;;;;;;43.60;10.73;;;;;;;13.80;100.00;96672.19;1026993;28;20038;-75
2023/09/30 01:39:34;;;;;;;42.85;14.55;;;;;;;13.83;100.00;96680.38;1019236;29;20020;-75
2023/09/30 01:40:08;;;;;;;30.90;9.90;;;;;;;13.79;100.00;96679.31;1019038;29;20031;-77
2023/09/30 01:40:38;;;;;;;31.33;11.50;;;;;;;13.75;100.00;96670.34;1014984;29;20036;-74
2023/09/30 01:41:09;;;;;;;39.33;12.75;;;;;;;13.79;100.00;96681.97;1022998;29;20623;-74
2023/09/30 01:41:40;;;;;;;32.40;11.18;;;;;;;13.75;100.00;96667.72;1018812;29;20421;-76
2023/09/30 01:42:10;;;;;;;39.90;12.88;;;;;;;13.81;100.00;96682.47;1018970;29;20027;-74
2023/09/30 01:42:41;;;;;;;48.42;12.10;;;;;;;13.81;100.00;96682.47;1019159;28;20039;-74
2023/09/30 01:43:13;;;;;;;44.97;13.18;;;;;;;13.80;100.00;96680.91;1027108;28;20504;-76
2023/09/30 01:43:43;;;;;;;32.15;12.30;;;;;;;13.83;100.00;96677.75;1026853;28;20027;-75
2023/09/30 01:44:14;;;;;;;31.88;12.43;;;;;;;13.77;100.00;96670.09;1022714;29;20031;-75
2023/09/30 01:44:44;;;;;;;56.67;14.00;;;;;;;13.75;100.00;96673.00;1022678;28;20109;-74
2023/09/30 01:45:15;;;;;;;53.53;12.52;;;;;;;13.82;100.00;96678.03;1022930;28;20665;-75
2023/09/30 01:45:45;;;;;;;32.60;11.75;;;;;;;13.81;100.00;96674.56;1022825;28;20035;-76
2023/09/30 01:46:16;;;;;;;33.17;11.73;;;;;;;13.73;100.00;96661.91;1026804;28;20034;-74
2023/09/30 01:46:46;;;;;;;29.83;12.07;;;;;;;13.83;100.00;96669.84;1018941;29;20074;-74
2023/09/30 01:47:17;;;;;;;29.70;11.32;;;;;;;13.85;100.00;96667.75;1026779;28;20063;-74
2023/09/30 01:47:47;;;;;;;36.95;13.80;;;;;;;13.81;100.00;96665.88;1028227;28;20439;-75
2023/09/30 01:48:17;;;;;;;37.45;12.88;;;;;;;13.75;100.00;96665.06;1030817;28;20066;-77
2023/09/30 01:48:48;;;;;;;41.83;12.40;;;;;;;13.79;100.00;96673.25;1026805;28;20030;-75
2023/09/30 01:49:18;;;;;;;28.33;11.23;;;;;;;13.77;100.00;96665.59;1026869;28;20090;-74
2023/09/30 01:49:49;;;;;;;28.73;10.98;;;;;;;13.75;100.00;96667.72;1022949;28;20517;-75
2023/09/30 01:50:19;;;;;;;37.08;11.82;;;;;;;13.68;100.00;96659.22;1022778;28;20035;-77
2023/09/30 01:50:50;;;;;;;37.63;13.25;;;;;;;13.75;100.00;96673.00;1018804;29;20031;-75
2023/09/30 01:51:21;;;;;;;35.60;12.15;;;;;;;13.72;100.00;96662.97;1019007;28;20043;-76
2023/09/30 01:51:52;;;;;;;32.13;12.13;;;;;;;13.70;100.00;96675.59;1023126;28;20054;-75
2023/09/30 01:52:23;;;;;;;36.08;11.70;;;;;;;13.68;100.00;96672.41;1023436;28;20031;-74
2023/09/30 01:52:53;;;;;;;63.45;14.05;;;;;;;13.70;100.00;96674.81;1026574;28;20619;-75
2023/09/30 01:53:24;;;;;;;38.97;12.15;;;;;;;13.70;100.00;96670.31;1022945;28;20027;-74
2023/09/30 01:53:54;;;;;;;29.50;10.23;;;;;;;13.68;100.00;96675.06;1026983;28;20049;-78
2023/09/30 01:54:25;;;;;;;31.73;11.98;;;;;;;13.68;100.00;96667.13;1026354;28;20451;-78
2023/09/30 01:54:55;;;;;;;27.15;9.32;;;;;;;13.64;100.00;96663.44;1022793;29;20516;-75
2023/09/30 01:55:26;;;;;;;39.33;12.55;;;;;;;13.67;100.00;96678.75;1014923;29;20042;-76
2023/09/30 01:55:57;;;;;;;38.38;12.23;;;;;;;13.66;100.00;96679.81;1015015;29;20036;-76
2023/09/30 01:56:27;;;;;;;55.75;13.07;;;;;;;13.65;100.00;96676.38;1014931;29;20044;-76
2023/09/30 01:56:58;;;;;;;35.63;11.35;;;;;;;13.61;100.00;96677.13;1015171;29;20118;-77
2023/09/30 01:57:29;;;;;;;47.25;14.07;;;;;;;13.64;100.00;96676.63;1023004;28;20543;-76
2023/09/30 01:57:59;;;;;;;25.15;10.05;;;;;;;13.61;100.00;96671.88;1026968;28;20070;-76
2023/09/30 01:58:30;;;;;;;44.67;12.95;;;;;;;13.61;100.00;96667.38;1027055;28;20522;-76
2023/09/30 01:59:00;;;;;;;37.72;9.65;;;;;;;13.65;100.00;96673.75;1030931;28;20671;-75
2023/09/30 01:59:31;;;;;;;34.75;10.35;;;;;;;13.65;100.00;96672.97;1026636;28;20043;-75
2023/09/30 02:00:01;;;;;;;29.58;10.07;;;;;;;13.64;100.00;96676.63;1022883;29;20558;-75
2023/09/30 02:00:32;;;;;;;41.20;11.18;;;;;;;13.62;100.00;96678.75;1022841;29;20500;-75
2023/09/30 02:01:03;;;;;;;34.05;10.98;;;;;;;13.59;100.00;96671.34;1022839;29;20024;-74
2023/09/30 02:01:33;;;;;;;25.15;9.07;;;;;;;13.60;100.00;96676.34;1025188;28;20023;-75
2023/09/30 02:02:04;;;;;;;44.35;12.48;;;;;;;13.66;100.00;96674.53;1030716;28;20022;-75
2023/09/30 02:02:36;;;;;;;41.00;11.73;;;;;;;13.66;100.00;96674.53;1026783;28;20049;-76
2023/09/30 02:03:07;;;;;;;32.03;9.45;;;;;;;13.66;100.00;96679.81;1027065;28;20037;-76
2023/09/30 02:03:38;;;;;;;53.78;12.25;;;;;;;13.71;100.00;96676.38;1030535;28;20627;-75
2023/09/30 02:04:08;;;;;;;43.88;12.13;;;;;;;13.70;100.00;96675.59;1027452;28;20019;-75
2023/09/30 02:04:38;;;;;;;35.33;10.88;;;;;;;13.75;100.00;96678.25;1029857;28;20026;-76
2023/09/30 02:05:09;;;;;;;35.50;11.85;;;;;;;13.78;100.00;96677.75;1026738;28;20019;-75
2023/09/30 02:05:39;;;;;;;23.02;11.70;;;;;;;13.78;100.00;96672.47;1018712;29;20043;-77
2023/09/30 02:06:10;;;;;;;31.08;9.25;;;;;;;13.84;100.00;96686.44;1018695;29;20075;-76
2023/09/30 02:06:41;;;;;;;24.83;9.45;;;;;;;13.78;100.00;96669.84;1021357;29;20034;-75
2023/09/30 02:07:12;;;;;;;31.40;12.18;;;;;;;13.84;100.00;96676.69;1018804;29;20061;-78
2023/09/30 02:07:43;;;;;;;26.13;7.47;;;;;;;13.83;100.00;96679.59;1022640;29;20019;-75
2023/09/30 02:08:13;;;;;;;29.92;9.50;;;;;;;13.83;100.00;96680.38;1023136;28;20094;-76
2023/09/30 02:08:44;;;;;;;33.40;11.70;;;;;;;13.85;100.00;96688.06;1019035;29;20076;-76
2023/09/30 02:09:15;;;;;;;51.25;11.32;;;;;;;13.83;100.00;96674.31;1023306;28;20015;-77
2023/09/30 02:09:45;;;;;;;24.33;10.23;;;;;;;13.88;100.00;96690.97;1018726;29;20028;-75
2023/09/30 02:10:18;;;;;;;27.17;9.57;;;;;;;13.91;100.00;96687.78;1019185;28;20051;-74
2023/09/30 02:10:48;;;;;;;32.08;11.05;;;;;;;13.91;100.00;96687.78;1026734;28;20018;-75
2023/09/30 02:11:19;;;;;;;21.25;8.05;;;;;;;13.94;100.00;96688.31;1023264;28;20808;-75
2023/09/30 02:11:49;;;;;;;24.85;8.63;;;;;;;13.97;100.00;96690.44;1025767;28;20026;-75
2023/09/30 02:12:20;;;;;;;18.98;7.57;;;;;;;13.98;100.00;96686.75;1022923;29;20031;-77
2023/09/30 02:12:50;;;;;;;18.88;7.82;;;;;;;14.03;100.00;96692.06;1022722;28;20015;-75
2023/09/30 02:13:21;;;;;;;19.30;7.75;;;;;;;14.01;100.00;96676.47;1026576;28;20026;-76
2023/09/30 02:13:51;;;;;;;25.73;7.65;;;;;;;14.04;100.00;96683.06;1018753;28;20082;-75
2023/09/30 02:14:22;;;;;;;23.65;8.82;;;;;;;14.11;100.00;96686.25;1022704;29;20031;-76
2023/09/30 02:14:52;;;;;;;20.33;7.38;;;;;;;14.12;100.00;96688.66;1022274;28;20541;-74
2023/09/30 02:15:23;;;;;;;19.38;6.70;;;;;;;14.11;100.00;96679.13;1018459;29;20027;-73
2023/09/30 02:15:55;;;;;;;33.85;7.63;;;;;;;14.18;100.00;96688.63;1018236;29;20674;-75
2023/09/30 02:16:25;;;;;;;18.52;6.20;;;;;;;14.18;100.00;96694.72;1023084;28;20115;-74
2023/09/30 02:16:57;;;;;;;24.17;6.10;;;;;;;14.19;100.00;96685.75;1022990;28;20406;-76
2023/09/30 02:17:27;;;;;;;15.65;4.00;;;;;;;14.20;100.00;96692.59;1023662;28;20535;-75
2023/09/30 02:18:00;;;;;;;16.17;3.47;;;;;;;14.21;100.00;96693.41;1030637;28;20030;-76
2023/09/30 02:18:32;;;;;;;18.67;4.25;;;;;;;14.23;100.00;96688.66;1027035;28;20106;-75
2023/09/30 02:19:02;;;;;;;7.43;3.67;;;;;;;14.24;100.00;96690.25;1030160;28;20030;-74
2023/09/30 02:19:33;;;;;;;9.93;4.15;;;;;;;14.25;100.00;96686.53;1023156;28;20019;-75
2023/09/30 02:20:07;;;;;;;16.85;5.38;;;;;;;14.23;100.00;96684.16;1023261;28;20030;-77
2023/09/30 02:20:41;;;;;;;17.15;4.53;;;;;;;14.23;100.00;96689.44;1019851;29;20036;-75
2023/09/30 02:21:11;;;;;;;10.80;4.15;;;;;;;14.23;100.00;96689.44;1019774;29;20024;-75
2023/09/30 02:21:42;;;;;;;11.68;4.85;;;;;;;14.22;100.00;96679.97;1023040;28;20023;-75